map of ZRH home
Great Circle Mapper logo
ZRH - Airport
Location
City:  Zürich, Switzerland
Name:Zürich-Kloten
ICAO / IATA:LSZH / ZRH

Details
Type:Airport (Flugplatz, Airfield)
Use:Public/Civil, International (customs port of entry)
Latitude:47°27'53"N (47.464722)
Longitude:8°32'57"E (8.549167)
Datum:WGS 1984
Elevation:1416 ft (432 m)
Runways:3
Longest:12139 × 197 ft (3700 × 60 m), paved

Time
Time Zone:UTC+1 (DST+2)
Local Time:

Weather
METAR:LSZH 171750Z 04003KT CAVOK 14/M05 Q1016 NOSIG
TAF:LSZH 171725Z 1718/1824 VRB03KT CAVOK TX12/1813Z TN03/1800Z
BECMG 1806/1810 9999 BKN075 PROB30
TEMPO 1812/1821 29012KT RA BKN020
BECMG 1818/1821 04005KT

Related Locations
Nearby:
Farthest:CHT: 12085 mi / 19448 km
Waitangi [Tuuta], Chatham Islands, NZ

Find:

   beyond  
but within

Other Information
Maps:
NOTAMs:
Links:
Sources:

  
flag of Switzerland   

Airport Diagram

Airport diagram for ZRH

Airport diagram (OBSOLETE) from NGA

Sectional Chart

Flight Planning
at skyvector.com

Satellite Image

Google Maps Satellite View

 

Copyright © 2004-2014 Karl L. Swartz. All rights reserved.
The Great Circle Mapper name and logo are trademarks of the Great Circle Mapper.
All other trademarks mentioned herein belong to their respective owners.
Please see credits for attibutions and further copyright information.

  Follow gcmap on Facebook Follow gcmap on Twitter

hCard Microformat

Geo Microformat